Terminal Aerodrome Forecast
Issued by NWS Pendleton, OR

Home | Current Version | Previous Version | Text Only | Print | Product List | Glossary On
Versions: 1 2 3 4 5 6 7 8 9 10 11 12 13 14 15 16 17 18 19 20 21 22 23 24 25 26 27
753
FTUS46 KPDT 220414 AAC
TAFPDT
TAF AMD
KPDT 220414Z 2204/2224 30008KT P6SM SCT019 OVC035
      TEMPO 2204/2206 4SM -SHRA BR BKN025 OVC035
     FM220600 25011KT P6SM SCT025 BKN040
     FM221200 23008KT P6SM BKN150
     FM221800 28009KT P6SM SCT200=

USA.gov is the U.S. government's official web portal to all federal, state and local government web resources and services.